Impacts TAF Board
For situational awareness. Not to be used for flight planning purposes.
IDs:

KCLT - Charlotte/Douglas In, NC, US

Issued at 0201 UTC 19 Feb 2019
Updated at 0215 UTC 19 Feb 2019
Potential Impact None Slight Moderate High
Time0152Z 19/03Z 19/04Z 19/05Z 19/06Z 19/07Z 19/08Z 19/09Z 19/10Z 19/11Z 19/12Z 19/13Z 19/14Z 19/15Z>>
Type OBS PRVL PRVL PRVL PRVL PRVL PRVL PRVL PRVL PRVL PRVL PRVL PRVL PRVL
VIS 10 >6 >6 >6 >6 >6 >6 >6 >6 >6 >6 >6 >6 >6
CIG 230 150 120 120 120 120 120 120 120 120 120 120 120 120
Cover BKN BKN BKN BKN BKN BKN BKN BKN BKN BKN BKN BKN BKN BKN
FltCat VFR VFR VFR VFR VFR VFR VFR VFR VFR VFR VFR VFR VFR VFR
WX -- -- -- -- -- -- -- -- -- -- -- -- -- --
WDir 360 360 30 30 30 30 30 30 30 30 30 30 30 30
WSpd 6 7 10 10 10 10 10 10 10 10 10 10 10 10
WGst -- -- -- -- -- -- -- -- -- -- -- -- -- --
Raw TAF
KCLT 190201Z 1902/2006 36007KT P6SM BKN150
  FM190400 03010KT P6SM SCT080 BKN120
  FM191800 04007KT P6SM VCSH SCT050 OVC080
  FM192200 05007KT P6SM OVC050
  PROB30 1922/2001 4SM -SHRA BR OVC025
  FM200100 07006KT 5SM -RA BR BKN025 OVC040


Raw METAR
KCLT 190152Z 36006KT 10SM SCT170 BKN230 10/M02 A3027 RMK AO2 PRESRR SLP251 T01001017
KCLT 190052Z 33006KT 10SM SCT180 BKN250 12/M02 A3022 RMK AO2 SLP235 T01171017
KCLT 182352Z 33003KT 10SM SCT170 BKN250 11/M03 A3020 RMK AO2 SLP226 T01111028 10183 20111 51026

METAR Board
Radar Display
Forecast Discussion
For situational awareness. Not to be used for flight planning purposes.